sensor_id;sensor_type;location;lat;lon;timestamp;pressure;altitude;pressure_sealevel;temperature;humidity
12475;BME280;6302;42.624;23.334;2023-04-22T00:00:48;92982.50;;;9.44;100.00
12475;BME280;6302;42.624;23.334;2023-04-22T00:03:15;92944.59;;;9.17;100.00
12475;BME280;6302;42.624;23.334;2023-04-22T00:05:45;92979.16;;;9.40;100.00
12475;BME280;6302;42.624;23.334;2023-04-22T00:08:12;92981.81;;;9.37;100.00
12475;BME280;6302;42.624;23.334;2023-04-22T00:10:39;92981.47;;;9.31;100.00
12475;BME280;6302;42.624;23.334;2023-04-22T00:13:07;92973.19;;;9.29;100.00
12475;BME280;6302;42.624;23.334;2023-04-22T00:15:34;92976.22;;;9.28;100.00
12475;BME280;6302;42.624;23.334;2023-04-22T00:18:04;92961.91;;;9.25;100.00
12475;BME280;6302;42.624;23.334;2023-04-22T00:20:31;92964.91;;;9.24;100.00
12475;BME280;6302;42.624;23.334;2023-04-22T00:22:58;92966.44;;;9.21;100.00
12475;BME280;6302;42.624;23.334;2023-04-22T00:25:25;92963.47;;;9.15;100.00
12475;BME280;6302;42.624;23.334;2023-04-22T00:27:52;92960.84;;;9.15;100.00
12475;BME280;6302;42.624;23.334;2023-04-22T00:30:20;92963.84;;;9.14;100.00
12475;BME280;6302;42.624;23.334;2023-04-22T00:32:48;92963.50;;;9.12;100.00
12475;BME280;6302;42.624;23.334;2023-04-22T00:35:15;92970.31;;;9.09;100.00
12475;BME280;6302;42.624;23.334;2023-04-22T00:37:42;92960.50;;;9.06;100.00
12475;BME280;6302;42.624;23.334;2023-04-22T00:40:09;92965.81;;;9.06;100.00
12475;BME280;6302;42.624;23.334;2023-04-22T00:42:36;92964.31;;;9.05;100.00
12475;BME280;6302;42.624;23.334;2023-04-22T00:45:04;92939.94;;;8.84;100.00
12475;BME280;6302;42.624;23.334;2023-04-22T00:47:36;92972.66;;;9.00;100.00
12475;BME280;6302;42.624;23.334;2023-04-22T00:50:04;92970.00;;;9.00;100.00
12475;BME280;6302;42.624;23.334;2023-04-22T00:52:31;92971.53;;;8.98;100.00
12475;BME280;6302;42.624;23.334;2023-04-22T00:54:58;92972.31;;;8.95;100.00
12475;BME280;6302;42.624;23.334;2023-04-22T00:57:25;92976.47;;;8.92;100.00
12475;BME280;6302;42.624;23.334;2023-04-22T00:59:52;92978.00;;;8.90;100.00
12475;BME280;6302;42.624;23.334;2023-04-22T01:02:19;92967.13;;;8.81;100.00
12475;BME280;6302;42.624;23.334;2023-04-22T01:04:47;92971.25;;;8.85;100.00
12475;BME280;6302;42.624;23.334;2023-04-22T01:07:14;92978.41;;;8.85;100.00
12475;BME280;6302;42.624;23.334;2023-04-22T01:09:41;92972.72;;;8.90;100.00
12475;BME280;6302;42.624;23.334;2023-04-22T01:12:08;92983.81;;;8.71;100.00
12475;BME280;6302;42.624;23.334;2023-04-22T01:14:35;92984.97;;;8.63;100.00
12475;BME280;6302;42.624;23.334;2023-04-22T01:17:03;92980.50;;;8.56;100.00
12475;BME280;6302;42.624;23.334;2023-04-22T01:19:31;92986.16;;;8.55;100.00
12475;BME280;6302;42.624;23.334;2023-04-22T01:22:00;92980.50;;;8.56;100.00
12475;BME280;6302;42.624;23.334;2023-04-22T01:24:29;92982.38;;;8.52;100.00
12475;BME280;6302;42.624;23.334;2023-04-22T01:26:55;92983.53;;;8.51;100.00
12475;BME280;6302;42.624;23.334;2023-04-22T01:29:23;92982.03;;;8.50;100.00
12475;BME280;6302;42.624;23.334;2023-04-22T01:31:51;92983.91;;;8.49;100.00
12475;BME280;6302;42.624;23.334;2023-04-22T01:34:18;92979.78;;;8.48;100.00
12475;BME280;6302;42.624;23.334;2023-04-22T01:36:45;92979.78;;;8.48;100.00
12475;BME280;6302;42.624;23.334;2023-04-22T01:39:11;92979.78;;;8.48;100.00
12475;BME280;6302;42.624;23.334;2023-04-22T01:41:40;92981.66;;;8.48;100.00
12475;BME280;6302;42.624;23.334;2023-04-22T01:44:07;92969.22;;;8.48;100.00
12475;BME280;6302;42.624;23.334;2023-04-22T01:46:36;92976.38;;;8.48;100.00
12475;BME280;6302;42.624;23.334;2023-04-22T01:49:02;92974.50;;;8.48;100.00
12475;BME280;6302;42.624;23.334;2023-04-22T01:51:29;92968.06;;;8.49;100.00
12475;BME280;6302;42.624;23.334;2023-04-22T01:53:56;92966.22;;;8.46;100.00
12475;BME280;6302;42.624;23.334;2023-04-22T01:56:23;92968.09;;;8.42;100.00
12475;BME280;6302;42.624;23.334;2023-04-22T01:58:51;92965.09;;;8.44;100.00
12475;BME280;6302;42.624;23.334;2023-04-22T02:01:18;92959.47;;;8.38;100.00
12475;BME280;6302;42.624;23.334;2023-04-22T02:03:45;92962.47;;;8.37;100.00
12475;BME280;6302;42.624;23.334;2023-04-22T02:06:12;92965.09;;;8.37;100.00
12475;BME280;6302;42.624;23.334;2023-04-22T02:08:38;92928.63;;;8.11;100.00
12475;BME280;6302;42.624;23.334;2023-04-22T02:11:05;92969.28;;;8.34;100.00
12475;BME280;6302;42.624;23.334;2023-04-22T02:13:35;92970.78;;;8.35;100.00
12475;BME280;6302;42.624;23.334;2023-04-22T02:16:04;92969.28;;;8.34;100.00
12475;BME280;6302;42.624;23.334;2023-04-22T02:18:31;92967.75;;;8.37;100.00
12475;BME280;6302;42.624;23.334;2023-04-22T02:20:58;92970.03;;;8.38;100.00
12475;BME280;6302;42.624;23.334;2023-04-22T02:23:26;92965.88;;;8.37;100.00
12475;BME280;6302;42.624;23.334;2023-04-22T02:25:54;92963.97;;;8.38;100.00
12475;BME280;6302;42.624;23.334;2023-04-22T02:28:21;92964.38;;;8.36;100.00
12475;BME280;6302;42.624;23.334;2023-04-22T02:30:48;92971.09;;;8.44;100.00
12475;BME280;6302;42.624;23.334;2023-04-22T02:33:16;92967.34;;;8.45;100.00
12475;BME280;6302;42.624;23.334;2023-04-22T02:35:43;92969.59;;;8.47;100.00
12475;BME280;6302;42.624;23.334;2023-04-22T02:38:10;92979.38;;;8.50;100.00
12475;BME280;6302;42.624;23.334;2023-04-22T02:40:37;92976.78;;;8.46;100.00
12475;BME280;6302;42.624;23.334;2023-04-22T02:43:04;92977.09;;;8.52;100.00
12475;BME280;6302;42.624;23.334;2023-04-22T02:45:31;92972.63;;;8.49;100.00
12475;BME280;6302;42.624;23.334;2023-04-22T02:47:58;92979.78;;;8.48;100.00
12475;BME280;6302;42.624;23.334;2023-04-22T02:50:26;92983.91;;;8.49;100.00
12475;BME280;6302;42.624;23.334;2023-04-22T02:52:54;92969.63;;;8.43;100.00
12475;BME280;6302;42.624;23.334;2023-04-22T02:55:21;92982.41;;;8.48;100.00
12475;BME280;6302;42.624;23.334;2023-04-22T02:57:49;92975.25;;;8.45;100.00
12475;BME280;6302;42.624;23.334;2023-04-22T03:00:16;92981.31;;;8.42;100.00
12475;BME280;6302;42.624;23.334;2023-04-22T03:02:43;92982.81;;;8.43;100.00
12475;BME280;6302;42.624;23.334;2023-04-22T03:05:09;92987.75;;;8.41;100.00
12475;BME280;6302;42.624;23.334;2023-04-22T03:07:38;92990.75;;;8.40;100.00
12475;BME280;6302;42.624;23.334;2023-04-22T03:10:06;92986.22;;;8.37;100.00
12475;BME280;6302;42.624;23.334;2023-04-22T03:12:32;92988.13;;;8.36;100.00
12475;BME280;6302;42.624;23.334;2023-04-22T03:14:59;92991.16;;;8.35;100.00
12475;BME280;6302;42.624;23.334;2023-04-22T03:17:26;92976.88;;;8.22;100.00
12475;BME280;6302;42.624;23.334;2023-04-22T03:19:53;92989.69;;;8.27;100.00
12475;BME280;6302;42.624;23.334;2023-04-22T03:22:20;92990.44;;;8.24;100.00
12475;BME280;6302;42.624;23.334;2023-04-22T03:24:48;92985.16;;;8.20;100.00
12475;BME280;6302;42.624;23.334;2023-04-22T03:27:15;92993.81;;;8.17;100.00
12475;BME280;6302;42.624;23.334;2023-04-22T03:29:41;92986.66;;;8.18;100.00
12475;BME280;6302;42.624;23.334;2023-04-22T03:32:08;92987.44;;;8.18;100.00
12475;BME280;6302;42.624;23.334;2023-04-22T03:34:35;92997.97;;;8.18;100.00
12475;BME280;6302;42.624;23.334;2023-04-22T03:37:02;92993.50;;;8.12;100.00
12475;BME280;6302;42.624;23.334;2023-04-22T03:39:28;93000.25;;;8.16;100.00
12475;BME280;6302;42.624;23.334;2023-04-22T03:41:57;93006.66;;;8.15;100.00
12475;BME280;6302;42.624;23.334;2023-04-22T03:44:23;93013.09;;;8.14;100.00
12475;BME280;6302;42.624;23.334;2023-04-22T03:46:50;93013.06;;;8.18;100.00
12475;BME280;6302;42.624;23.334;2023-04-22T03:49:17;93017.56;;;8.17;100.00
12475;BME280;6302;42.624;23.334;2023-04-22T03:51:44;93016.81;;;8.20;100.00
12475;BME280;6302;42.624;23.334;2023-04-22T03:54:11;93010.03;;;8.23;100.00
12475;BME280;6302;42.624;23.334;2023-04-22T03:56:37;93013.44;;;8.27;100.00
12475;BME280;6302;42.624;23.334;2023-04-22T03:59:05;93010.78;;;8.30;100.00
12475;BME280;6302;42.624;23.334;2023-04-22T04:01:32;93011.50;;;8.38;100.00
12475;BME280;6302;42.624;23.334;2023-04-22T04:04:00;93014.50;;;8.43;100.00
12475;BME280;6302;42.624;23.334;2023-04-22T04:06:27;93017.50;;;8.49;100.00
12475;BME280;6302;42.624;23.334;2023-04-22T04:08:54;93019.34;;;8.56;100.00
12475;BME280;6302;42.624;23.334;2023-04-22T04:11:21;93019.66;;;8.65;100.00
12475;BME280;6302;42.624;23.334;2023-04-22T04:13:48;93029.78;;;8.77;100.00
12475;BME280;6302;42.624;23.334;2023-04-22T04:16:16;93023.69;;;8.87;100.00
12475;BME280;6302;42.624;23.334;2023-04-22T04:18:43;93019.50;;;8.96;100.00
12475;BME280;6302;42.624;23.334;2023-04-22T04:21:09;93024.34;;;9.08;100.00
12475;BME280;6302;42.624;23.334;2023-04-22T04:23:36;93029.19;;;9.13;100.00
12475;BME280;6302;42.624;23.334;2023-04-22T04:26:03;93027.63;;;9.23;100.00
12475;BME280;6302;42.624;23.334;2023-04-22T04:28:30;93020.00;;;9.32;100.00
12475;BME280;6302;42.624;23.334;2023-04-22T04:30:59;93028.22;;;9.41;100.00
12475;BME280;6302;42.624;23.334;2023-04-22T04:33:28;93027.03;;;9.49;100.00
12475;BME280;6302;42.624;23.334;2023-04-22T04:35:56;93030.34;;;9.60;100.00
12475;BME280;6302;42.624;23.334;2023-04-22T04:38:24;93034.84;;;9.67;100.00
12475;BME280;6302;42.624;23.334;2023-04-22T04:40:51;93044.63;;;9.70;100.00
12475;BME280;6302;42.624;23.334;2023-04-22T04:43:19;93049.09;;;9.76;100.00
12475;BME280;6302;42.624;23.334;2023-04-22T04:45:50;93048.41;;;9.72;100.00
12475;BME280;6302;42.624;23.334;2023-04-22T04:48:17;93055.16;;;9.77;100.00
12475;BME280;6302;42.624;23.334;2023-04-22T04:50:46;93069.50;;;9.79;100.00
12475;BME280;6302;42.624;23.334;2023-04-22T04:53:14;93072.38;;;9.96;100.00
12475;BME280;6302;42.624;23.334;2023-04-22T04:55:41;93077.91;;;10.08;100.00
12475;BME280;6302;42.624;23.334;2023-04-22T04:58:08;93076.34;;;10.18;100.00
12475;BME280;6302;42.624;23.334;2023-04-22T05:00:35;93072.94;;;10.17;100.00
12475;BME280;6302;42.624;23.334;2023-04-22T05:03:01;93081.88;;;10.30;100.00
12475;BME280;6302;42.624;23.334;2023-04-22T05:05:28;93071.19;;;10.41;100.00
12475;BME280;6302;42.624;23.334;2023-04-22T05:07:57;93077.97;;;10.42;100.00
12475;BME280;6302;42.624;23.334;2023-04-22T05:10:23;93072.31;;;10.40;100.00
12475;BME280;6302;42.624;23.334;2023-04-22T05:12:50;93053.91;;;10.29;100.00
12475;BME280;6302;42.624;23.334;2023-04-22T05:15:19;93074.88;;;10.51;100.00
12475;BME280;6302;42.624;23.334;2023-04-22T05:17:45;93083.84;;;10.60;100.00
12475;BME280;6302;42.624;23.334;2023-04-22T05:20:12;93080.47;;;10.56;100.00
12475;BME280;6302;42.624;23.334;2023-04-22T05:22:39;93084.91;;;10.66;100.00
12475;BME280;6302;42.624;23.334;2023-04-22T05:25:09;93084.28;;;10.85;100.00
12475;BME280;6302;42.624;23.334;2023-04-22T05:27:36;93086.19;;;10.85;100.00
12475;BME280;6302;42.624;23.334;2023-04-22T05:30:04;93079.78;;;10.82;100.00
12475;BME280;6302;42.624;23.334;2023-04-22T05:32:31;93086.81;;;10.96;100.00
12475;BME280;6302;42.624;23.334;2023-04-22T05:34:57;93085.53;;;11.07;100.00
12475;BME280;6302;42.624;23.334;2023-04-22T05:37:24;93088.06;;;11.15;100.00
12475;BME280;6302;42.624;23.334;2023-04-22T05:39:51;93077.13;;;11.13;100.00
12475;BME280;6302;42.624;23.334;2023-04-22T05:42:19;93086.31;;;11.04;100.00
12475;BME280;6302;42.624;23.334;2023-04-22T05:44:46;93094.72;;;10.99;100.00
12475;BME280;6302;42.624;23.334;2023-04-22T05:47:13;93097.03;;;10.97;100.00
12475;BME280;6302;42.624;23.334;2023-04-22T05:49:39;93093.88;;;11.06;100.00
12475;BME280;6302;42.624;23.334;2023-04-22T05:52:06;93088.63;;;11.02;100.00
12475;BME280;6302;42.624;23.334;2023-04-22T05:54:33;93086.44;;;10.94;100.00
12475;BME280;6302;42.624;23.334;2023-04-22T05:57:00;93093.94;;;11.02;100.00
12475;BME280;6302;42.624;23.334;2023-04-22T05:59:28;93089.84;;;10.94;100.00
12475;BME280;6302;42.624;23.334;2023-04-22T06:01:55;93082.97;;;11.00;100.00
12475;BME280;6302;42.624;23.334;2023-04-22T06:04:21;93082.47;;;11.09;100.00
12475;BME280;6302;42.624;23.334;2023-04-22T06:06:49;93086.44;;;11.24;100.00
12475;BME280;6302;42.624;23.334;2023-04-22T06:09:18;93092.16;;;11.23;100.00
12475;BME280;6302;42.624;23.334;2023-04-22T06:11:45;93084.88;;;11.27;100.00
12475;BME280;6302;42.624;23.334;2023-04-22T06:14:11;93088.94;;;11.35;100.00
12475;BME280;6302;42.624;23.334;2023-04-22T06:16:40;93096.69;;;11.22;100.00
12475;BME280;6302;42.624;23.334;2023-04-22T06:19:07;93087.44;;;11.34;100.00
12475;BME280;6302;42.624;23.334;2023-04-22T06:21:33;93088.19;;;11.34;100.00
12475;BME280;6302;42.624;23.334;2023-04-22T06:24:02;93087.78;;;11.36;100.00
12475;BME280;6302;42.624;23.334;2023-04-22T06:26:30;93087.25;;;11.48;100.00
12475;BME280;6302;42.624;23.334;2023-04-22T06:28:57;93089.19;;;11.44;100.00
12475;BME280;6302;42.624;23.334;2023-04-22T06:31:24;93096.34;;;11.47;100.00
12475;BME280;6302;42.624;23.334;2023-04-22T06:33:52;93090.81;;;11.61;100.00
12475;BME280;6302;42.624;23.334;2023-04-22T06:36:19;93101.53;;;11.54;100.00
12475;BME280;6302;42.624;23.334;2023-04-22T06:38:45;93097.75;;;11.55;100.00
12475;BME280;6302;42.624;23.334;2023-04-22T06:41:12;93093.53;;;11.57;100.00
12475;BME280;6302;42.624;23.334;2023-04-22T06:43:39;93104.25;;;11.77;100.00
12475;BME280;6302;42.624;23.334;2023-04-22T06:46:06;93113.97;;;11.87;100.00
12475;BME280;6302;42.624;23.334;2023-04-22T06:48:33;93109.38;;;11.88;100.00
12475;BME280;6302;42.624;23.334;2023-04-22T06:51:01;93119.31;;;11.84;100.00
12475;BME280;6302;42.624;23.334;2023-04-22T06:53:28;93111.53;;;11.73;100.00
12475;BME280;6302;42.624;23.334;2023-04-22T06:55:54;93114.66;;;11.91;100.00
12475;BME280;6302;42.624;23.334;2023-04-22T06:58:21;93119.81;;;12.02;100.00
12475;BME280;6302;42.624;23.334;2023-04-22T07:00:48;93117.16;;;12.02;100.00
12475;BME280;6302;42.624;23.334;2023-04-22T07:03:15;93113.66;;;12.05;100.00
12475;BME280;6302;42.624;23.334;2023-04-22T07:05:42;93110.50;;;12.13;100.00
12475;BME280;6302;42.624;23.334;2023-04-22T07:08:10;93111.97;;;12.37;100.00
12475;BME280;6302;42.624;23.334;2023-04-22T07:10:37;93113.47;;;12.38;100.00
12475;BME280;6302;42.624;23.334;2023-04-22T07:13:04;93120.75;;;12.34;100.00
12475;BME280;6302;42.624;23.334;2023-04-22T07:15:30;93117.63;;;12.39;100.00
12475;BME280;6302;42.624;23.334;2023-04-22T07:17:57;93119.13;;;12.40;100.00
12475;BME280;6302;42.624;23.334;2023-04-22T07:20:24;93116.56;;;12.57;100.00
12475;BME280;6302;42.624;23.334;2023-04-22T07:22:51;93120.19;;;12.66;100.00
12475;BME280;6302;42.624;23.334;2023-04-22T07:25:19;93129.28;;;12.69;100.00
12475;BME280;6302;42.624;23.334;2023-04-22T07:27:46;93125.56;;;13.02;100.00
12475;BME280;6302;42.624;23.334;2023-04-22T07:30:13;93127.56;;;13.18;100.00
12475;BME280;6302;42.624;23.334;2023-04-22T07:32:40;93129.16;;;13.15;100.00
12475;BME280;6302;42.624;23.334;2023-04-22T07:35:07;93123.47;;;13.33;100.00
12475;BME280;6302;42.624;23.334;2023-04-22T07:37:34;93131.69;;;13.38;100.00
12475;BME280;6302;42.624;23.334;2023-04-22T07:40:01;93132.88;;;13.53;100.00
12475;BME280;6302;42.624;23.334;2023-04-22T07:42:29;93128.25;;;13.74;100.00
12475;BME280;6302;42.624;23.334;2023-04-22T07:44:56;93130.25;;;13.69;100.00
12475;BME280;6302;42.624;23.334;2023-04-22T07:47:22;93128.25;;;13.74;99.66
12475;BME280;6302;42.624;23.334;2023-04-22T07:49:49;93129.28;;;13.80;98.22
12475;BME280;6302;42.624;23.334;2023-04-22T07:52:18;93132.59;;;13.84;97.39
12475;BME280;6302;42.624;23.334;2023-04-22T07:54:45;93117.19;;;14.07;96.79
12475;BME280;6302;42.624;23.334;2023-04-22T07:57:12;93120.78;;;14.01;95.33
12475;BME280;6302;42.624;23.334;2023-04-22T07:59:40;93119.94;;;13.88;94.63
12475;BME280;6302;42.624;23.334;2023-04-22T08:02:07;93118.22;;;13.97;96.93
12475;BME280;6302;42.624;23.334;2023-04-22T08:04:34;93114.47;;;13.95;96.24
12475;BME280;6302;42.624;23.334;2023-04-22T08:07:01;93116.19;;;14.17;95.87
12475;BME280;6302;42.624;23.334;2023-04-22T08:09:28;93121.94;;;14.32;93.52
12475;BME280;6302;42.624;23.334;2023-04-22T08:11:55;93118.75;;;14.37;91.60
12475;BME280;6302;42.624;23.334;2023-04-22T08:14:22;93111.81;;;14.56;88.54
12475;BME280;6302;42.624;23.334;2023-04-22T08:16:51;93116.91;;;14.66;89.03
12475;BME280;6302;42.624;23.334;2023-04-22T08:19:19;93108.22;;;14.91;89.37
12475;BME280;6302;42.624;23.334;2023-04-22T08:21:46;93106.34;;;15.17;87.51
12475;BME280;6302;42.624;23.334;2023-04-22T08:24:13;93102.41;;;15.34;87.29
12475;BME280;6302;42.624;23.334;2023-04-22T08:26:40;93105.13;;;15.46;86.80
12475;BME280;6302;42.624;23.334;2023-04-22T08:29:07;93113.69;;;15.67;83.00
12475;BME280;6302;42.624;23.334;2023-04-22T08:31:34;93106.06;;;15.40;79.43
12475;BME280;6302;42.624;23.334;2023-04-22T08:34:02;93104.53;;;15.26;81.89
12475;BME280;6302;42.624;23.334;2023-04-22T08:36:29;93102.06;;;15.07;82.42
12475;BME280;6302;42.624;23.334;2023-04-22T08:38:57;93095.31;;;15.02;82.04
12475;BME280;6302;42.624;23.334;2023-04-22T08:41:24;93094.50;;;15.18;83.01
12475;BME280;6302;42.624;23.334;2023-04-22T08:43:52;93089.06;;;15.34;82.75
12475;BME280;6302;42.624;23.334;2023-04-22T08:46:19;93088.25;;;15.49;81.09
12475;BME280;6302;42.624;23.334;2023-04-22T08:48:49;93088.91;;;15.53;77.43
12475;BME280;6302;42.624;23.334;2023-04-22T08:51:18;93083.78;;;15.72;76.55
12475;BME280;6302;42.624;23.334;2023-04-22T08:53:45;93084.63;;;15.69;78.41
12475;BME280;6302;42.624;23.334;2023-04-22T08:56:12;93083.88;;;15.68;75.96
12475;BME280;6302;42.624;23.334;2023-04-22T08:58:40;93072.56;;;15.64;74.38
12475;BME280;6302;42.624;23.334;2023-04-22T09:01:07;93077.81;;;15.68;73.02
12475;BME280;6302;42.624;23.334;2023-04-22T09:03:35;93077.91;;;15.77;70.70
12475;BME280;6302;42.624;23.334;2023-04-22T09:06:05;93074.44;;;16.01;71.85
12475;BME280;6302;42.624;23.334;2023-04-22T09:08:34;93072.34;;;16.31;72.43
12475;BME280;6302;42.624;23.334;2023-04-22T09:11:02;93065.81;;;16.32;68.39
12475;BME280;6302;42.624;23.334;2023-04-22T09:13:28;93070.75;;;16.20;69.17
12475;BME280;6302;42.624;23.334;2023-04-22T09:15:55;93067.47;;;16.16;69.96
12475;BME280;6302;42.624;23.334;2023-04-22T09:18:22;93059.47;;;16.04;71.29
12475;BME280;6302;42.624;23.334;2023-04-22T09:20:53;93065.78;;;15.97;69.75
12475;BME280;6302;42.624;23.334;2023-04-22T09:23:21;93058.94;;;16.09;67.41
12475;BME280;6302;42.624;23.334;2023-04-22T09:25:49;93061.44;;;16.25;68.33
12475;BME280;6302;42.624;23.334;2023-04-22T09:28:17;93056.34;;;16.40;67.97
12475;BME280;6302;42.624;23.334;2023-04-22T09:30:46;93056.75;;;16.51;66.01
12475;BME280;6302;42.624;23.334;2023-04-22T09:33:13;93046.44;;;16.62;64.93
12475;BME280;6302;42.624;23.334;2023-04-22T09:35:42;93051.13;;;16.70;62.90
12475;BME280;6302;42.624;23.334;2023-04-22T09:38:10;93045.53;;;16.56;64.25
12475;BME280;6302;42.624;23.334;2023-04-22T09:40:41;93052.41;;;16.44;62.70
12475;BME280;6302;42.624;23.334;2023-04-22T09:43:10;93037.63;;;16.52;61.11
12475;BME280;6302;42.624;23.334;2023-04-22T09:45:38;93039.94;;;16.63;61.89
12475;BME280;6302;42.624;23.334;2023-04-22T09:48:07;93042.75;;;16.81;58.18
12475;BME280;6302;42.624;23.334;2023-04-22T09:50:34;93032.19;;;17.08;60.38
12475;BME280;6302;42.624;23.334;2023-04-22T09:53:02;93030.78;;;17.25;60.81
12475;BME280;6302;42.624;23.334;2023-04-22T09:55:32;93034.94;;;17.26;58.00
12475;BME280;6302;42.624;23.334;2023-04-22T09:58:04;93029.59;;;17.26;60.50
12475;BME280;6302;42.624;23.334;2023-04-22T10:00:35;93031.66;;;17.22;57.28
12475;BME280;6302;42.624;23.334;2023-04-22T10:03:04;93038.75;;;16.85;58.38
12475;BME280;6302;42.624;23.334;2023-04-22T10:05:31;93044.22;;;16.60;52.77
12475;BME280;6302;42.624;23.334;2023-04-22T10:08:02;93032.63;;;16.42;50.72
12475;BME280;6302;42.624;23.334;2023-04-22T10:10:29;93035.63;;;16.65;48.98
12475;BME280;6302;42.624;23.334;2023-04-22T10:12:56;93013.13;;;16.54;59.84
12475;BME280;6302;42.624;23.334;2023-04-22T10:15:24;93042.28;;;15.92;64.58
12475;BME280;6302;42.624;23.334;2023-04-22T10:17:53;93035.69;;;15.59;62.35
12475;BME280;6302;42.624;23.334;2023-04-22T10:20:21;93029.50;;;15.37;62.02
12475;BME280;6302;42.624;23.334;2023-04-22T10:22:51;93023.81;;;15.10;62.32
12475;BME280;6302;42.624;23.334;2023-04-22T10:25:22;93026.13;;;14.82;60.36
12475;BME280;6302;42.624;23.334;2023-04-22T10:27:53;93034.53;;;14.68;62.22
12475;BME280;6302;42.624;23.334;2023-04-22T10:30:27;93025.16;;;14.76;60.81
12475;BME280;6302;42.624;23.334;2023-04-22T10:32:55;93027.44;;;14.90;61.40
12475;BME280;6302;42.624;23.334;2023-04-22T10:35:27;93038.69;;;15.23;62.57
12475;BME280;6302;42.624;23.334;2023-04-22T10:37:54;93031.34;;;15.52;63.97
12475;BME280;6302;42.624;23.334;2023-04-22T10:40:22;93028.50;;;15.81;59.38
12475;BME280;6302;42.624;23.334;2023-04-22T10:42:51;93027.31;;;15.95;58.87
12475;BME280;6302;42.624;23.334;2023-04-22T10:45:23;93027.81;;;16.02;58.07
12475;BME280;6302;42.624;23.334;2023-04-22T10:47:50;93027.16;;;16.11;58.26
12475;BME280;6302;42.624;23.334;2023-04-22T10:50:21;93028.44;;;16.41;58.50
12475;BME280;6302;42.624;23.334;2023-04-22T10:52:50;93020.03;;;16.29;57.29
12475;BME280;6302;42.624;23.334;2023-04-22T10:55:18;93017.81;;;16.50;58.39
12475;BME280;6302;42.624;23.334;2023-04-22T10:57:47;93021.19;;;16.84;58.94
12475;BME280;6302;42.624;23.334;2023-04-22T11:00:22;93017.31;;;17.07;60.52
12475;BME280;6302;42.624;23.334;2023-04-22T11:02:52;93014.06;;;17.12;58.63
12475;BME280;6302;42.624;23.334;2023-04-22T11:05:22;93021.41;;;16.99;56.92
12475;BME280;6302;42.624;23.334;2023-04-22T11:07:52;93021.06;;;16.88;58.76
12475;BME280;6302;42.624;23.334;2023-04-22T11:10:31;93023.25;;;17.11;56.10
12475;BME280;6302;42.624;23.334;2023-04-22T11:12:59;93015.56;;;17.13;56.80
12475;BME280;6302;42.624;23.334;2023-04-22T11:15:28;93010.31;;;17.40;55.72
12475;BME280;6302;42.624;23.334;2023-04-22T11:17:55;93001.38;;;17.43;54.55
12475;BME280;6302;42.624;23.334;2023-04-22T11:20:24;93004.94;;;17.80;54.28
12475;BME280;6302;42.624;23.334;2023-04-22T11:22:52;93005.44;;;18.06;53.65
12475;BME280;6302;42.624;23.334;2023-04-22T11:25:20;93000.31;;;17.72;49.74
12475;BME280;6302;42.624;23.334;2023-04-22T11:27:47;93012.31;;;17.58;52.19
12475;BME280;6302;42.624;23.334;2023-04-22T11:30:16;93016.66;;;17.65;50.08
12475;BME280;6302;42.624;23.334;2023-04-22T11:32:44;93017.25;;;17.69;52.74
12475;BME280;6302;42.624;23.334;2023-04-22T11:35:12;93021.88;;;17.68;53.81
12475;BME280;6302;42.624;23.334;2023-04-22T11:37:43;93035.06;;;16.92;54.40
12475;BME280;6302;42.624;23.334;2023-04-22T11:40:11;93050.16;;;16.43;55.72
12475;BME280;6302;42.624;23.334;2023-04-22T11:42:39;93029.63;;;16.05;57.71
12475;BME280;6302;42.624;23.334;2023-04-22T11:45:07;93042.78;;;16.00;60.83
12475;BME280;6302;42.624;23.334;2023-04-22T11:47:34;93047.78;;;15.51;62.02
12475;BME280;6302;42.624;23.334;2023-04-22T11:50:02;93044.97;;;15.42;63.86
12475;BME280;6302;42.624;23.334;2023-04-22T11:52:49;93047.66;;;15.42;65.72
12475;BME280;6302;42.624;23.334;2023-04-22T11:55:18;93059.28;;;15.35;67.48
12475;BME280;6302;42.624;23.334;2023-04-22T11:57:51;93056.91;;;15.12;68.46
12475;BME280;6302;42.624;23.334;2023-04-22T12:00:18;93058.00;;;15.15;66.64
12475;BME280;6302;42.624;23.334;2023-04-22T12:02:54;93067.88;;;15.02;66.32
12475;BME280;6302;42.624;23.334;2023-04-22T12:05:32;93063.50;;;14.95;68.12
12475;BME280;6302;42.624;23.334;2023-04-22T12:08:01;93067.97;;;14.85;68.60
12475;BME280;6302;42.624;23.334;2023-04-22T12:10:28;93077.13;;;14.84;67.55
12475;BME280;6302;42.624;23.334;2023-04-22T12:12:55;93075.09;;;14.76;67.80
12475;BME280;6302;42.624;23.334;2023-04-22T12:15:22;93069.13;;;14.84;69.07
12475;BME280;6302;42.624;23.334;2023-04-22T12:17:49;93071.94;;;14.93;70.99
12475;BME280;6302;42.624;23.334;2023-04-22T12:20:17;93067.16;;;15.14;70.56
12475;BME280;6302;42.624;23.334;2023-04-22T12:22:44;93069.28;;;14.93;70.89
12475;BME280;6302;42.624;23.334;2023-04-22T12:25:16;93053.28;;;14.93;70.27
12475;BME280;6302;42.624;23.334;2023-04-22T12:27:43;93067.25;;;14.97;71.81
12475;BME280;6302;42.624;23.334;2023-04-22T12:30:12;93067.13;;;14.88;71.89
12475;BME280;6302;42.624;23.334;2023-04-22T12:32:39;93066.66;;;14.77;71.15
12475;BME280;6302;42.624;23.334;2023-04-22T12:35:07;93066.03;;;14.73;70.03
12475;BME280;6302;42.624;23.334;2023-04-22T12:37:34;93071.41;;;14.57;69.99
12475;BME280;6302;42.624;23.334;2023-04-22T12:40:01;93067.25;;;14.56;68.79
12475;BME280;6302;42.624;23.334;2023-04-22T12:42:30;93066.22;;;14.66;69.82
12475;BME280;6302;42.624;23.334;2023-04-22T12:44:57;93062.94;;;14.75;71.32
12475;BME280;6302;42.624;23.334;2023-04-22T12:47:26;93062.72;;;14.82;72.26
12475;BME280;6302;42.624;23.334;2023-04-22T12:49:53;93057.09;;;14.92;72.56
12475;BME280;6302;42.624;23.334;2023-04-22T12:52:19;93065.84;;;14.93;71.64
12475;BME280;6302;42.624;23.334;2023-04-22T12:54:46;93059.97;;;14.85;74.41
12475;BME280;6302;42.624;23.334;2023-04-22T12:57:13;93051.69;;;14.67;72.35
12475;BME280;6302;42.624;23.334;2023-04-22T12:59:41;93062.75;;;14.53;74.62